sensor_id;sensor_type;location;lat;lon;timestamp;temperature;humidity
21019;DHT22;10667;51.056;3.732;2024-02-23T00:01:45;6.80;99.90
21019;DHT22;10667;51.056;3.732;2024-02-23T00:04:11;6.70;99.90
21019;DHT22;10667;51.056;3.732;2024-02-23T00:06:37;6.80;99.90
21019;DHT22;10667;51.056;3.732;2024-02-23T00:09:02;6.80;99.90
21019;DHT22;10667;51.056;3.732;2024-02-23T00:11:28;6.80;99.90
21019;DHT22;10667;51.056;3.732;2024-02-23T00:13:54;6.80;99.90
21019;DHT22;10667;51.056;3.732;2024-02-23T00:16:20;6.90;99.90
21019;DHT22;10667;51.056;3.732;2024-02-23T00:18:45;6.90;99.90
21019;DHT22;10667;51.056;3.732;2024-02-23T00:21:11;7.00;99.90
21019;DHT22;10667;51.056;3.732;2024-02-23T00:23:37;7.00;99.90
21019;DHT22;10667;51.056;3.732;2024-02-23T00:26:02;6.90;99.90
21019;DHT22;10667;51.056;3.732;2024-02-23T00:28:28;6.90;99.90
21019;DHT22;10667;51.056;3.732;2024-02-23T00:30:54;6.90;99.90
21019;DHT22;10667;51.056;3.732;2024-02-23T00:33:19;6.90;99.90
21019;DHT22;10667;51.056;3.732;2024-02-23T00:35:45;6.90;99.90
21019;DHT22;10667;51.056;3.732;2024-02-23T00:38:11;6.90;99.90
21019;DHT22;10667;51.056;3.732;2024-02-23T00:40:37;6.80;99.90
21019;DHT22;10667;51.056;3.732;2024-02-23T00:43:04;6.90;99.90
21019;DHT22;10667;51.056;3.732;2024-02-23T00:45:29;6.90;99.90
21019;DHT22;10667;51.056;3.732;2024-02-23T00:47:55;6.70;99.90
21019;DHT22;10667;51.056;3.732;2024-02-23T00:50:22;6.70;99.90
21019;DHT22;10667;51.056;3.732;2024-02-23T00:52:49;6.80;99.90
21019;DHT22;10667;51.056;3.732;2024-02-23T00:55:14;6.80;99.90
21019;DHT22;10667;51.056;3.732;2024-02-23T00:57:40;6.80;99.90
21019;DHT22;10667;51.056;3.732;2024-02-23T01:00:06;6.70;99.90
21019;DHT22;10667;51.056;3.732;2024-02-23T01:02:32;6.70;99.90
21019;DHT22;10667;51.056;3.732;2024-02-23T01:05:01;6.60;99.90
21019;DHT22;10667;51.056;3.732;2024-02-23T01:07:27;6.40;99.90
21019;DHT22;10667;51.056;3.732;2024-02-23T01:09:53;6.50;99.90
21019;DHT22;10667;51.056;3.732;2024-02-23T01:12:19;6.50;99.90
21019;DHT22;10667;51.056;3.732;2024-02-23T01:14:44;6.40;99.90
21019;DHT22;10667;51.056;3.732;2024-02-23T01:17:10;6.50;99.90
21019;DHT22;10667;51.056;3.732;2024-02-23T01:19:35;6.40;99.90
21019;DHT22;10667;51.056;3.732;2024-02-23T01:22:01;6.40;99.90
21019;DHT22;10667;51.056;3.732;2024-02-23T01:24:27;6.40;99.90
21019;DHT22;10667;51.056;3.732;2024-02-23T01:26:54;6.40;99.90
21019;DHT22;10667;51.056;3.732;2024-02-23T01:29:21;6.40;99.90
21019;DHT22;10667;51.056;3.732;2024-02-23T01:31:48;6.50;99.90
21019;DHT22;10667;51.056;3.732;2024-02-23T01:34:14;6.50;99.90
21019;DHT22;10667;51.056;3.732;2024-02-23T01:36:40;6.50;99.90
21019;DHT22;10667;51.056;3.732;2024-02-23T01:39:05;6.50;99.90
21019;DHT22;10667;51.056;3.732;2024-02-23T01:41:32;6.50;99.90
21019;DHT22;10667;51.056;3.732;2024-02-23T01:43:58;6.50;99.90
21019;DHT22;10667;51.056;3.732;2024-02-23T01:46:24;6.50;99.90
21019;DHT22;10667;51.056;3.732;2024-02-23T01:48:51;6.50;99.90
21019;DHT22;10667;51.056;3.732;2024-02-23T01:51:17;6.50;99.90
21019;DHT22;10667;51.056;3.732;2024-02-23T01:53:42;6.50;99.90
21019;DHT22;10667;51.056;3.732;2024-02-23T01:56:09;6.50;99.90
21019;DHT22;10667;51.056;3.732;2024-02-23T01:58:37;6.60;99.90
21019;DHT22;10667;51.056;3.732;2024-02-23T02:01:03;6.70;99.90
21019;DHT22;10667;51.056;3.732;2024-02-23T02:03:29;6.70;99.90
21019;DHT22;10667;51.056;3.732;2024-02-23T02:05:55;6.70;99.90
21019;DHT22;10667;51.056;3.732;2024-02-23T02:08:25;6.60;99.90
21019;DHT22;10667;51.056;3.732;2024-02-23T02:10:50;6.60;99.90
21019;DHT22;10667;51.056;3.732;2024-02-23T02:13:16;6.60;99.90
21019;DHT22;10667;51.056;3.732;2024-02-23T02:15:42;6.60;99.90
21019;DHT22;10667;51.056;3.732;2024-02-23T02:18:10;6.60;99.90
21019;DHT22;10667;51.056;3.732;2024-02-23T02:20:36;6.50;99.90
21019;DHT22;10667;51.056;3.732;2024-02-23T02:23:03;6.60;99.90
21019;DHT22;10667;51.056;3.732;2024-02-23T02:25:28;6.60;99.90
21019;DHT22;10667;51.056;3.732;2024-02-23T02:27:54;6.60;99.90
21019;DHT22;10667;51.056;3.732;2024-02-23T02:30:20;6.50;99.90
21019;DHT22;10667;51.056;3.732;2024-02-23T02:32:45;6.50;99.90
21019;DHT22;10667;51.056;3.732;2024-02-23T02:35:11;6.50;99.90
21019;DHT22;10667;51.056;3.732;2024-02-23T02:37:40;6.50;99.90
21019;DHT22;10667;51.056;3.732;2024-02-23T02:40:06;6.40;99.90
21019;DHT22;10667;51.056;3.732;2024-02-23T02:42:33;6.30;99.90
21019;DHT22;10667;51.056;3.732;2024-02-23T02:44:59;6.40;99.90
21019;DHT22;10667;51.056;3.732;2024-02-23T02:47:24;6.40;99.90
21019;DHT22;10667;51.056;3.732;2024-02-23T02:49:50;6.50;99.90
21019;DHT22;10667;51.056;3.732;2024-02-23T02:52:16;6.60;99.90
21019;DHT22;10667;51.056;3.732;2024-02-23T02:54:42;6.60;99.90
21019;DHT22;10667;51.056;3.732;2024-02-23T02:57:07;6.60;99.90
21019;DHT22;10667;51.056;3.732;2024-02-23T02:59:36;6.60;99.90
21019;DHT22;10667;51.056;3.732;2024-02-23T03:02:02;6.50;99.90
21019;DHT22;10667;51.056;3.732;2024-02-23T03:04:27;6.60;99.90
21019;DHT22;10667;51.056;3.732;2024-02-23T03:06:53;6.50;99.90
21019;DHT22;10667;51.056;3.732;2024-02-23T03:09:18;6.50;99.90
21019;DHT22;10667;51.056;3.732;2024-02-23T03:11:44;6.50;99.90
21019;DHT22;10667;51.056;3.732;2024-02-23T03:14:10;6.50;99.90
21019;DHT22;10667;51.056;3.732;2024-02-23T03:16:35;6.60;99.90
21019;DHT22;10667;51.056;3.732;2024-02-23T03:19:03;6.70;99.90
21019;DHT22;10667;51.056;3.732;2024-02-23T03:21:29;6.60;99.90
21019;DHT22;10667;51.056;3.732;2024-02-23T03:23:54;6.60;99.90
21019;DHT22;10667;51.056;3.732;2024-02-23T03:26:20;6.60;99.90
21019;DHT22;10667;51.056;3.732;2024-02-23T03:28:46;6.60;99.90
21019;DHT22;10667;51.056;3.732;2024-02-23T03:31:11;6.80;99.90
21019;DHT22;10667;51.056;3.732;2024-02-23T03:33:37;6.80;99.90
21019;DHT22;10667;51.056;3.732;2024-02-23T03:36:03;6.70;99.90
21019;DHT22;10667;51.056;3.732;2024-02-23T03:38:29;6.60;99.90
21019;DHT22;10667;51.056;3.732;2024-02-23T03:40:55;6.70;99.90
21019;DHT22;10667;51.056;3.732;2024-02-23T03:43:21;6.60;99.90
21019;DHT22;10667;51.056;3.732;2024-02-23T03:45:47;6.60;99.90
21019;DHT22;10667;51.056;3.732;2024-02-23T03:48:13;6.60;99.90
21019;DHT22;10667;51.056;3.732;2024-02-23T03:50:38;6.50;99.90
21019;DHT22;10667;51.056;3.732;2024-02-23T03:53:04;6.50;99.90
21019;DHT22;10667;51.056;3.732;2024-02-23T03:55:30;6.60;99.90
21019;DHT22;10667;51.056;3.732;2024-02-23T03:57:56;6.60;99.90
21019;DHT22;10667;51.056;3.732;2024-02-23T04:00:21;6.60;99.90
21019;DHT22;10667;51.056;3.732;2024-02-23T04:02:49;6.60;99.90
21019;DHT22;10667;51.056;3.732;2024-02-23T04:05:14;6.70;99.90
21019;DHT22;10667;51.056;3.732;2024-02-23T04:07:40;6.70;99.90
21019;DHT22;10667;51.056;3.732;2024-02-23T04:10:06;6.70;99.90
21019;DHT22;10667;51.056;3.732;2024-02-23T04:12:32;6.80;99.90
21019;DHT22;10667;51.056;3.732;2024-02-23T04:14:58;6.70;99.90
21019;DHT22;10667;51.056;3.732;2024-02-23T04:17:23;6.60;99.90
21019;DHT22;10667;51.056;3.732;2024-02-23T04:19:49;6.50;99.90
21019;DHT22;10667;51.056;3.732;2024-02-23T04:22:15;6.50;99.90
21019;DHT22;10667;51.056;3.732;2024-02-23T04:24:41;6.50;99.90
21019;DHT22;10667;51.056;3.732;2024-02-23T04:27:07;6.50;99.90
21019;DHT22;10667;51.056;3.732;2024-02-23T04:29:33;6.50;99.90
21019;DHT22;10667;51.056;3.732;2024-02-23T04:32:02;6.50;99.90
21019;DHT22;10667;51.056;3.732;2024-02-23T04:34:28;6.50;99.90
21019;DHT22;10667;51.056;3.732;2024-02-23T04:36:54;6.50;99.90
21019;DHT22;10667;51.056;3.732;2024-02-23T04:39:20;6.50;99.90
21019;DHT22;10667;51.056;3.732;2024-02-23T04:41:46;6.50;99.90
21019;DHT22;10667;51.056;3.732;2024-02-23T04:44:12;6.50;99.90
21019;DHT22;10667;51.056;3.732;2024-02-23T04:46:38;6.40;99.90
21019;DHT22;10667;51.056;3.732;2024-02-23T04:49:03;6.40;99.90
21019;DHT22;10667;51.056;3.732;2024-02-23T04:51:29;6.40;99.90
21019;DHT22;10667;51.056;3.732;2024-02-23T04:53:55;6.40;99.90
21019;DHT22;10667;51.056;3.732;2024-02-23T04:56:20;6.40;99.90
21019;DHT22;10667;51.056;3.732;2024-02-23T04:58:46;6.40;99.90
21019;DHT22;10667;51.056;3.732;2024-02-23T05:01:12;6.40;99.90
21019;DHT22;10667;51.056;3.732;2024-02-23T05:03:38;6.40;99.90
21019;DHT22;10667;51.056;3.732;2024-02-23T05:06:04;6.30;99.90
21019;DHT22;10667;51.056;3.732;2024-02-23T05:08:30;6.30;99.90
21019;DHT22;10667;51.056;3.732;2024-02-23T05:10:57;6.40;99.90
21019;DHT22;10667;51.056;3.732;2024-02-23T05:13:23;6.40;99.90
21019;DHT22;10667;51.056;3.732;2024-02-23T05:15:49;6.30;99.90
21019;DHT22;10667;51.056;3.732;2024-02-23T05:18:14;6.30;99.90
21019;DHT22;10667;51.056;3.732;2024-02-23T05:20:40;6.30;99.90
21019;DHT22;10667;51.056;3.732;2024-02-23T05:23:06;6.30;99.90
21019;DHT22;10667;51.056;3.732;2024-02-23T05:25:31;6.30;99.90
21019;DHT22;10667;51.056;3.732;2024-02-23T05:27:57;6.40;99.90
21019;DHT22;10667;51.056;3.732;2024-02-23T05:30:22;6.40;99.90
21019;DHT22;10667;51.056;3.732;2024-02-23T05:32:48;6.40;99.90
21019;DHT22;10667;51.056;3.732;2024-02-23T05:35:14;6.30;99.90
21019;DHT22;10667;51.056;3.732;2024-02-23T05:37:41;6.30;99.90
21019;DHT22;10667;51.056;3.732;2024-02-23T05:40:07;6.30;99.90
21019;DHT22;10667;51.056;3.732;2024-02-23T05:42:36;6.20;99.90
21019;DHT22;10667;51.056;3.732;2024-02-23T05:45:02;6.30;99.90
21019;DHT22;10667;51.056;3.732;2024-02-23T05:47:32;6.20;99.90
21019;DHT22;10667;51.056;3.732;2024-02-23T05:49:58;6.40;99.90
21019;DHT22;10667;51.056;3.732;2024-02-23T05:52:24;6.30;99.90
21019;DHT22;10667;51.056;3.732;2024-02-23T05:54:49;6.30;99.90
21019;DHT22;10667;51.056;3.732;2024-02-23T05:57:17;6.40;99.90
21019;DHT22;10667;51.056;3.732;2024-02-23T05:59:42;6.50;99.90
21019;DHT22;10667;51.056;3.732;2024-02-23T06:02:08;6.50;99.90
21019;DHT22;10667;51.056;3.732;2024-02-23T06:04:34;6.40;99.90
21019;DHT22;10667;51.056;3.732;2024-02-23T06:06:59;6.40;99.90
21019;DHT22;10667;51.056;3.732;2024-02-23T06:09:25;6.40;99.90
21019;DHT22;10667;51.056;3.732;2024-02-23T06:11:50;6.30;99.90
21019;DHT22;10667;51.056;3.732;2024-02-23T06:14:17;6.40;99.90
21019;DHT22;10667;51.056;3.732;2024-02-23T06:16:43;6.50;99.90
21019;DHT22;10667;51.056;3.732;2024-02-23T06:19:08;6.50;99.90
21019;DHT22;10667;51.056;3.732;2024-02-23T06:21:34;6.50;99.90
21019;DHT22;10667;51.056;3.732;2024-02-23T06:24:00;6.50;99.90
21019;DHT22;10667;51.056;3.732;2024-02-23T06:26:26;6.50;99.90
21019;DHT22;10667;51.056;3.732;2024-02-23T06:28:51;6.50;99.90
21019;DHT22;10667;51.056;3.732;2024-02-23T06:31:17;6.60;99.90
21019;DHT22;10667;51.056;3.732;2024-02-23T06:33:42;6.60;99.90
21019;DHT22;10667;51.056;3.732;2024-02-23T06:36:09;6.50;99.90
21019;DHT22;10667;51.056;3.732;2024-02-23T06:38:34;6.60;99.90
21019;DHT22;10667;51.056;3.732;2024-02-23T06:41:00;6.60;99.90
21019;DHT22;10667;51.056;3.732;2024-02-23T06:43:26;6.60;99.90
21019;DHT22;10667;51.056;3.732;2024-02-23T06:45:52;6.70;99.90
21019;DHT22;10667;51.056;3.732;2024-02-23T06:48:17;6.70;99.90
21019;DHT22;10667;51.056;3.732;2024-02-23T06:50:43;6.70;99.90
21019;DHT22;10667;51.056;3.732;2024-02-23T06:53:09;6.70;99.90
21019;DHT22;10667;51.056;3.732;2024-02-23T06:55:35;6.70;99.90
21019;DHT22;10667;51.056;3.732;2024-02-23T06:58:01;6.80;99.90
21019;DHT22;10667;51.056;3.732;2024-02-23T07:00:27;6.80;99.90
21019;DHT22;10667;51.056;3.732;2024-02-23T07:02:52;6.80;99.90
21019;DHT22;10667;51.056;3.732;2024-02-23T07:05:18;6.80;99.90
21019;DHT22;10667;51.056;3.732;2024-02-23T07:07:44;6.80;99.90
21019;DHT22;10667;51.056;3.732;2024-02-23T07:10:09;6.90;99.90
21019;DHT22;10667;51.056;3.732;2024-02-23T07:12:37;7.00;99.90
21019;DHT22;10667;51.056;3.732;2024-02-23T07:15:03;7.00;99.90
21019;DHT22;10667;51.056;3.732;2024-02-23T07:17:28;7.00;99.90
21019;DHT22;10667;51.056;3.732;2024-02-23T07:19:54;7.00;99.90
21019;DHT22;10667;51.056;3.732;2024-02-23T07:22:28;6.90;99.90
21019;DHT22;10667;51.056;3.732;2024-02-23T07:24:53;6.90;99.90
21019;DHT22;10667;51.056;3.732;2024-02-23T07:27:19;6.90;99.90
21019;DHT22;10667;51.056;3.732;2024-02-23T07:29:45;7.00;99.90
21019;DHT22;10667;51.056;3.732;2024-02-23T07:32:11;7.00;99.90
21019;DHT22;10667;51.056;3.732;2024-02-23T07:34:36;7.00;99.90
21019;DHT22;10667;51.056;3.732;2024-02-23T07:37:02;7.10;99.90
21019;DHT22;10667;51.056;3.732;2024-02-23T07:39:29;7.10;99.90
21019;DHT22;10667;51.056;3.732;2024-02-23T07:41:54;7.10;99.90
21019;DHT22;10667;51.056;3.732;2024-02-23T07:44:20;7.10;99.90
21019;DHT22;10667;51.056;3.732;2024-02-23T07:46:46;7.10;99.90
21019;DHT22;10667;51.056;3.732;2024-02-23T07:49:11;7.20;99.90
21019;DHT22;10667;51.056;3.732;2024-02-23T07:51:37;7.20;99.90
21019;DHT22;10667;51.056;3.732;2024-02-23T07:54:03;7.10;99.90
21019;DHT22;10667;51.056;3.732;2024-02-23T07:56:28;7.10;99.90
21019;DHT22;10667;51.056;3.732;2024-02-23T07:58:55;7.00;99.90
21019;DHT22;10667;51.056;3.732;2024-02-23T08:01:20;7.00;99.90
21019;DHT22;10667;51.056;3.732;2024-02-23T08:03:46;7.00;99.90
21019;DHT22;10667;51.056;3.732;2024-02-23T08:06:12;7.10;99.90
21019;DHT22;10667;51.056;3.732;2024-02-23T08:08:38;7.20;99.90
21019;DHT22;10667;51.056;3.732;2024-02-23T08:11:04;7.30;99.90
21019;DHT22;10667;51.056;3.732;2024-02-23T08:13:30;7.40;99.90
21019;DHT22;10667;51.056;3.732;2024-02-23T08:15:59;7.50;99.90
21019;DHT22;10667;51.056;3.732;2024-02-23T08:18:25;7.60;99.90
21019;DHT22;10667;51.056;3.732;2024-02-23T08:20:51;7.50;99.90
21019;DHT22;10667;51.056;3.732;2024-02-23T08:23:17;7.50;99.90
21019;DHT22;10667;51.056;3.732;2024-02-23T08:25:44;7.40;99.90
21019;DHT22;10667;51.056;3.732;2024-02-23T08:28:10;7.50;99.90
21019;DHT22;10667;51.056;3.732;2024-02-23T08:30:35;7.50;99.90
21019;DHT22;10667;51.056;3.732;2024-02-23T08:33:01;7.50;99.90
21019;DHT22;10667;51.056;3.732;2024-02-23T08:35:27;7.50;99.90
21019;DHT22;10667;51.056;3.732;2024-02-23T08:37:52;7.50;99.90
21019;DHT22;10667;51.056;3.732;2024-02-23T08:40:18;7.50;99.90
21019;DHT22;10667;51.056;3.732;2024-02-23T08:42:44;7.40;99.90
21019;DHT22;10667;51.056;3.732;2024-02-23T08:45:09;7.40;99.90
21019;DHT22;10667;51.056;3.732;2024-02-23T08:47:38;7.30;99.90
21019;DHT22;10667;51.056;3.732;2024-02-23T08:50:03;7.50;99.90
21019;DHT22;10667;51.056;3.732;2024-02-23T08:52:29;7.50;99.90
21019;DHT22;10667;51.056;3.732;2024-02-23T08:54:55;7.50;99.90
21019;DHT22;10667;51.056;3.732;2024-02-23T08:57:21;7.50;99.90
21019;DHT22;10667;51.056;3.732;2024-02-23T08:59:49;7.50;99.90
21019;DHT22;10667;51.056;3.732;2024-02-23T09:02:14;7.50;99.90
21019;DHT22;10667;51.056;3.732;2024-02-23T09:04:40;7.60;99.90
21019;DHT22;10667;51.056;3.732;2024-02-23T09:07:06;7.50;99.90
21019;DHT22;10667;51.056;3.732;2024-02-23T09:09:32;7.50;99.90
21019;DHT22;10667;51.056;3.732;2024-02-23T09:11:58;7.50;99.90
21019;DHT22;10667;51.056;3.732;2024-02-23T09:14:23;7.40;99.90
21019;DHT22;10667;51.056;3.732;2024-02-23T09:16:51;7.50;99.90
21019;DHT22;10667;51.056;3.732;2024-02-23T09:19:17;7.60;99.90
21019;DHT22;10667;51.056;3.732;2024-02-23T09:21:44;7.50;99.90
21019;DHT22;10667;51.056;3.732;2024-02-23T09:24:09;7.50;99.90
21019;DHT22;10667;51.056;3.732;2024-02-23T09:26:35;7.50;99.90
21019;DHT22;10667;51.056;3.732;2024-02-23T09:29:00;7.60;99.90
21019;DHT22;10667;51.056;3.732;2024-02-23T09:31:26;7.70;99.90
21019;DHT22;10667;51.056;3.732;2024-02-23T09:33:54;7.80;99.90
21019;DHT22;10667;51.056;3.732;2024-02-23T09:36:20;7.80;99.90
21019;DHT22;10667;51.056;3.732;2024-02-23T09:38:46;7.80;99.90
21019;DHT22;10667;51.056;3.732;2024-02-23T09:41:21;7.80;99.90
21019;DHT22;10667;51.056;3.732;2024-02-23T09:43:47;7.90;99.90
21019;DHT22;10667;51.056;3.732;2024-02-23T09:46:15;7.90;99.90
21019;DHT22;10667;51.056;3.732;2024-02-23T09:48:44;7.90;99.90
21019;DHT22;10667;51.056;3.732;2024-02-23T09:51:13;7.90;99.90
21019;DHT22;10667;51.056;3.732;2024-02-23T09:53:41;7.90;99.90
21019;DHT22;10667;51.056;3.732;2024-02-23T09:56:08;7.90;99.90
21019;DHT22;10667;51.056;3.732;2024-02-23T09:58:39;8.00;99.90
21019;DHT22;10667;51.056;3.732;2024-02-23T10:01:06;7.80;99.90
21019;DHT22;10667;51.056;3.732;2024-02-23T10:03:32;7.80;99.90
21019;DHT22;10667;51.056;3.732;2024-02-23T10:05:59;7.90;99.90
21019;DHT22;10667;51.056;3.732;2024-02-23T10:08:28;7.90;99.90
21019;DHT22;10667;51.056;3.732;2024-02-23T10:10:54;7.90;99.90
21019;DHT22;10667;51.056;3.732;2024-02-23T10:13:22;7.90;99.90
21019;DHT22;10667;51.056;3.732;2024-02-23T10:15:50;7.90;99.90
21019;DHT22;10667;51.056;3.732;2024-02-23T10:18:16;7.90;99.90
21019;DHT22;10667;51.056;3.732;2024-02-23T10:20:42;8.00;99.90
21019;DHT22;10667;51.056;3.732;2024-02-23T10:23:08;7.90;99.90
21019;DHT22;10667;51.056;3.732;2024-02-23T10:25:35;8.00;99.90
21019;DHT22;10667;51.056;3.732;2024-02-23T10:28:02;7.90;99.90
21019;DHT22;10667;51.056;3.732;2024-02-23T10:30:27;8.10;99.90
21019;DHT22;10667;51.056;3.732;2024-02-23T10:32:56;8.10;99.90
21019;DHT22;10667;51.056;3.732;2024-02-23T10:35:23;8.10;99.90
21019;DHT22;10667;51.056;3.732;2024-02-23T10:37:49;8.20;99.90
21019;DHT22;10667;51.056;3.732;2024-02-23T10:40:20;8.20;99.90
21019;DHT22;10667;51.056;3.732;2024-02-23T10:42:47;8.20;99.90
21019;DHT22;10667;51.056;3.732;2024-02-23T10:45:17;8.40;99.90
21019;DHT22;10667;51.056;3.732;2024-02-23T10:47:43;8.30;99.90
21019;DHT22;10667;51.056;3.732;2024-02-23T10:50:10;8.40;99.90
21019;DHT22;10667;51.056;3.732;2024-02-23T10:52:40;8.40;99.90
21019;DHT22;10667;51.056;3.732;2024-02-23T10:55:09;8.40;99.90
21019;DHT22;10667;51.056;3.732;2024-02-23T10:57:35;8.40;99.90
21019;DHT22;10667;51.056;3.732;2024-02-23T11:00:02;8.50;99.90
21019;DHT22;10667;51.056;3.732;2024-02-23T11:02:41;8.60;99.90
21019;DHT22;10667;51.056;3.732;2024-02-23T11:05:08;8.50;99.90
21019;DHT22;10667;51.056;3.732;2024-02-23T11:07:40;8.50;99.90
21019;DHT22;10667;51.056;3.732;2024-02-23T11:10:06;8.50;99.90
21019;DHT22;10667;51.056;3.732;2024-02-23T11:12:35;8.50;99.90
21019;DHT22;10667;51.056;3.732;2024-02-23T11:15:01;8.70;99.90
21019;DHT22;10667;51.056;3.732;2024-02-23T11:17:29;8.70;99.90
21019;DHT22;10667;51.056;3.732;2024-02-23T11:19:56;8.60;99.90
21019;DHT22;10667;51.056;3.732;2024-02-23T11:22:25;8.60;99.90
21019;DHT22;10667;51.056;3.732;2024-02-23T11:24:51;8.60;99.90
21019;DHT22;10667;51.056;3.732;2024-02-23T11:27:17;8.70;99.90
21019;DHT22;10667;51.056;3.732;2024-02-23T11:29:45;8.70;99.90
21019;DHT22;10667;51.056;3.732;2024-02-23T11:32:21;8.50;99.90
21019;DHT22;10667;51.056;3.732;2024-02-23T11:34:56;8.40;99.90
21019;DHT22;10667;51.056;3.732;2024-02-23T11:37:22;8.60;99.90
21019;DHT22;10667;51.056;3.732;2024-02-23T11:39:48;8.70;99.90
21019;DHT22;10667;51.056;3.732;2024-02-23T11:42:14;8.80;99.90
21019;DHT22;10667;51.056;3.732;2024-02-23T11:44:41;8.70;99.90
21019;DHT22;10667;51.056;3.732;2024-02-23T11:47:07;8.80;99.90
21019;DHT22;10667;51.056;3.732;2024-02-23T11:49:33;8.70;99.90
21019;DHT22;10667;51.056;3.732;2024-02-23T11:51:58;8.70;99.90
21019;DHT22;10667;51.056;3.732;2024-02-23T11:54:24;8.60;99.90
21019;DHT22;10667;51.056;3.732;2024-02-23T11:56:50;8.60;99.90
21019;DHT22;10667;51.056;3.732;2024-02-23T11:59:19;8.60;99.90
21019;DHT22;10667;51.056;3.732;2024-02-23T12:01:46;8.50;99.90
21019;DHT22;10667;51.056;3.732;2024-02-23T12:04:14;8.60;99.90
21019;DHT22;10667;51.056;3.732;2024-02-23T12:06:40;8.60;99.90
21019;DHT22;10667;51.056;3.732;2024-02-23T12:09:07;8.60;99.90
21019;DHT22;10667;51.056;3.732;2024-02-23T12:11:33;8.70;99.90
21019;DHT22;10667;51.056;3.732;2024-02-23T12:14:00;8.80;99.90
21019;DHT22;10667;51.056;3.732;2024-02-23T12:16:27;8.90;99.90
21019;DHT22;10667;51.056;3.732;2024-02-23T12:18:54;9.00;99.90
21019;DHT22;10667;51.056;3.732;2024-02-23T12:21:23;9.00;99.90
21019;DHT22;10667;51.056;3.732;2024-02-23T12:23:50;9.00;99.90
21019;DHT22;10667;51.056;3.732;2024-02-23T12:26:17;8.90;99.90
21019;DHT22;10667;51.056;3.732;2024-02-23T12:28:43;9.00;99.90
21019;DHT22;10667;51.056;3.732;2024-02-23T12:31:10;8.90;99.90
21019;DHT22;10667;51.056;3.732;2024-02-23T12:33:39;8.90;99.90
21019;DHT22;10667;51.056;3.732;2024-02-23T12:36:06;9.00;99.90
21019;DHT22;10667;51.056;3.732;2024-02-23T12:38:32;9.20;99.90
21019;DHT22;10667;51.056;3.732;2024-02-23T12:40:58;9.40;99.90
21019;DHT22;10667;51.056;3.732;2024-02-23T12:43:24;9.50;99.90
21019;DHT22;10667;51.056;3.732;2024-02-23T12:45:53;9.60;99.90
21019;DHT22;10667;51.056;3.732;2024-02-23T12:48:22;9.50;99.90
21019;DHT22;10667;51.056;3.732;2024-02-23T12:50:48;9.60;99.90
21019;DHT22;10667;51.056;3.732;2024-02-23T12:53:37;9.40;99.90
21019;DHT22;10667;51.056;3.732;2024-02-23T12:56:05;9.30;99.90
21019;DHT22;10667;51.056;3.732;2024-02-23T12:58:38;9.20;99.90
21019;DHT22;10667;51.056;3.732;2024-02-23T13:01:05;9.30;99.90
21019;DHT22;10667;51.056;3.732;2024-02-23T13:03:32;9.50;99.90
21019;DHT22;10667;51.056;3.732;2024-02-23T13:05:58;9.60;99.90
21019;DHT22;10667;51.056;3.732;2024-02-23T13:08:25;9.70;99.90
21019;DHT22;10667;51.056;3.732;2024-02-23T13:10:51;9.40;99.90
21019;DHT22;10667;51.056;3.732;2024-02-23T13:13:18;9.40;99.90
21019;DHT22;10667;51.056;3.732;2024-02-23T13:15:45;9.40;99.90
21019;DHT22;10667;51.056;3.732;2024-02-23T13:18:11;9.50;99.90
21019;DHT22;10667;51.056;3.732;2024-02-23T13:20:39;9.50;99.90
21019;DHT22;10667;51.056;3.732;2024-02-23T13:23:09;9.60;99.90
21019;DHT22;10667;51.056;3.732;2024-02-23T13:25:35;9.60;99.90
21019;DHT22;10667;51.056;3.732;2024-02-23T13:28:02;9.70;99.90
21019;DHT22;10667;51.056;3.732;2024-02-23T13:30:28;9.80;99.90
21019;DHT22;10667;51.056;3.732;2024-02-23T13:32:53;9.90;99.90
21019;DHT22;10667;51.056;3.732;2024-02-23T13:35:20;9.90;99.90
21019;DHT22;10667;51.056;3.732;2024-02-23T13:37:45;10.00;99.90
21019;DHT22;10667;51.056;3.732;2024-02-23T13:40:11;10.00;99.90
21019;DHT22;10667;51.056;3.732;2024-02-23T13:42:37;10.10;99.90
21019;DHT22;10667;51.056;3.732;2024-02-23T13:45:07;10.10;99.90
21019;DHT22;10667;51.056;3.732;2024-02-23T13:47:33;10.10;99.90
21019;DHT22;10667;51.056;3.732;2024-02-23T13:49:59;9.90;99.90
21019;DHT22;10667;51.056;3.732;2024-02-23T13:52:25;9.90;99.90
21019;DHT22;10667;51.056;3.732;2024-02-23T13:54:51;10.10;99.90
21019;DHT22;10667;51.056;3.732;2024-02-23T13:57:16;10.20;99.90
21019;DHT22;10667;51.056;3.732;2024-02-23T13:59:42;10.10;99.90
21019;DHT22;10667;51.056;3.732;2024-02-23T14:02:08;10.20;99.90
21019;DHT22;10667;51.056;3.732;2024-02-23T14:04:33;10.30;99.90
21019;DHT22;10667;51.056;3.732;2024-02-23T14:06:59;10.30;99.90
21019;DHT22;10667;51.056;3.732;2024-02-23T14:09:25;10.20;99.90
21019;DHT22;10667;51.056;3.732;2024-02-23T14:11:50;10.20;99.90
21019;DHT22;10667;51.056;3.732;2024-02-23T14:14:16;10.20;99.90
21019;DHT22;10667;51.056;3.732;2024-02-23T14:16:42;10.10;99.90
21019;DHT22;10667;51.056;3.732;2024-02-23T14:19:07;10.20;99.90
21019;DHT22;10667;51.056;3.732;2024-02-23T14:21:33;10.10;99.90
21019;DHT22;10667;51.056;3.732;2024-02-23T14:24:02;10.10;99.90
21019;DHT22;10667;51.056;3.732;2024-02-23T14:26:27;10.00;99.90
21019;DHT22;10667;51.056;3.732;2024-02-23T14:28:53;10.00;99.90
21019;DHT22;10667;51.056;3.732;2024-02-23T14:31:19;9.80;99.90
21019;DHT22;10667;51.056;3.732;2024-02-23T14:33:45;9.60;99.90
21019;DHT22;10667;51.056;3.732;2024-02-23T14:36:10;9.40;99.90
21019;DHT22;10667;51.056;3.732;2024-02-23T14:38:36;9.30;99.90
21019;DHT22;10667;51.056;3.732;2024-02-23T14:41:02;9.10;99.90
21019;DHT22;10667;51.056;3.732;2024-02-23T14:43:28;9.00;99.90
21019;DHT22;10667;51.056;3.732;2024-02-23T14:45:57;8.90;99.90
21019;DHT22;10667;51.056;3.732;2024-02-23T14:48:22;8.80;99.90
21019;DHT22;10667;51.056;3.732;2024-02-23T14:50:48;8.90;99.90
21019;DHT22;10667;51.056;3.732;2024-02-23T14:53:15;8.90;99.90
21019;DHT22;10667;51.056;3.732;2024-02-23T14:55:40;9.00;99.90
21019;DHT22;10667;51.056;3.732;2024-02-23T14:58:06;9.10;99.90
21019;DHT22;10667;51.056;3.732;2024-02-23T15:00:32;9.10;99.90
21019;DHT22;10667;51.056;3.732;2024-02-23T15:02:58;9.10;99.90
21019;DHT22;10667;51.056;3.732;2024-02-23T15:05:24;8.90;99.90
21019;DHT22;10667;51.056;3.732;2024-02-23T15:07:50;9.10;99.90
21019;DHT22;10667;51.056;3.732;2024-02-23T15:10:16;9.10;99.90
21019;DHT22;10667;51.056;3.732;2024-02-23T15:12:42;9.10;99.90
21019;DHT22;10667;51.056;3.732;2024-02-23T15:15:08;9.10;99.90
21019;DHT22;10667;51.056;3.732;2024-02-23T15:17:34;9.10;99.90
21019;DHT22;10667;51.056;3.732;2024-02-23T15:19:59;9.10;99.90
21019;DHT22;10667;51.056;3.732;2024-02-23T15:22:25;9.20;99.90
21019;DHT22;10667;51.056;3.732;2024-02-23T15:24:51;9.20;99.90
21019;DHT22;10667;51.056;3.732;2024-02-23T15:27:18;9.20;99.90
21019;DHT22;10667;51.056;3.732;2024-02-23T15:29:45;9.00;99.90
21019;DHT22;10667;51.056;3.732;2024-02-23T15:32:10;9.10;99.90
21019;DHT22;10667;51.056;3.732;2024-02-23T15:34:36;9.10;99.90
21019;DHT22;10667;51.056;3.732;2024-02-23T15:37:02;9.10;99.90
21019;DHT22;10667;51.056;3.732;2024-02-23T15:39:28;9.20;99.90